createdAt,value
2022-08-14T00:00:35.291Z,1011.51
2022-08-14T00:01:35.308Z,1011.53
2022-08-14T00:02:35.311Z,1011.50
2022-08-14T00:03:35.260Z,1011.47
2022-08-14T00:04:41.883Z,1011.44
2022-08-14T00:05:36.232Z,1011.54
2022-08-14T00:06:35.227Z,1011.46
2022-08-14T00:07:35.246Z,1011.48
2022-08-14T00:08:43.737Z,1011.50
2022-08-14T00:09:56.414Z,1011.50
2022-08-14T00:10:52.420Z,1011.44
2022-08-14T00:11:36.192Z,1011.41
2022-08-14T00:12:39.230Z,1011.43
2022-08-14T00:13:35.150Z,1011.40
2022-08-14T00:14:35.142Z,1011.41
2022-08-14T00:15:43.568Z,1011.44
2022-08-14T00:16:41.575Z,1011.42
2022-08-14T00:17:38.219Z,1011.44
2022-08-14T00:19:05.335Z,1011.41
2022-08-14T00:19:36.087Z,1011.39
2022-08-14T00:20:35.904Z,1011.40
2022-08-14T00:21:36.105Z,1011.42
2022-08-14T00:22:56.286Z,1011.46
2022-08-14T00:23:36.039Z,1011.39
2022-08-14T00:24:35.103Z,1011.39
2022-08-14T00:25:42.011Z,1011.38
2022-08-14T00:26:36.035Z,1011.48
2022-08-14T00:27:37.862Z,1011.37
2022-08-14T00:28:35.545Z,1011.43
2022-08-14T00:29:40.555Z,1011.38
2022-08-14T00:30:35.964Z,1011.36
2022-08-14T00:31:44.365Z,1011.43
2022-08-14T00:32:50.533Z,1011.41
2022-08-14T00:33:50.815Z,1011.38
2022-08-14T00:34:46.233Z,1011.41
2022-08-14T00:36:36.689Z,1011.46
2022-08-14T00:36:49.582Z,1011.35
2022-08-14T00:37:35.922Z,1011.36
2022-08-14T00:38:35.178Z,1011.38
2022-08-14T00:39:34.965Z,1011.38
2022-08-14T00:40:35.687Z,1011.37
2022-08-14T00:41:34.924Z,1011.45
2022-08-14T00:42:55.628Z,1011.40
2022-08-14T00:43:35.828Z,1011.36
2022-08-14T00:44:34.816Z,1011.42
2022-08-14T00:45:34.802Z,1011.36
2022-08-14T00:46:34.836Z,1011.36
2022-08-14T00:47:43.087Z,1011.33
2022-08-14T00:48:36.871Z,1011.34
2022-08-14T00:49:38.022Z,1011.31
2022-08-14T00:50:35.752Z,1011.29
2022-08-14T00:51:37.868Z,1011.30
2022-08-14T00:52:34.814Z,1011.31
2022-08-14T00:53:34.737Z,1011.26
2022-08-14T00:54:34.712Z,1011.28
2022-08-14T00:55:35.942Z,1011.20
2022-08-14T00:56:34.721Z,1011.20
2022-08-14T00:57:34.678Z,1011.25
2022-08-14T00:58:34.669Z,1011.22
2022-08-14T00:59:34.661Z,1011.20
2022-08-14T01:00:42.840Z,1011.24
2022-08-14T01:01:35.715Z,1011.23
2022-08-14T01:02:34.625Z,1011.23
2022-08-14T01:03:34.616Z,1011.14
2022-08-14T01:04:38.466Z,1011.20
2022-08-14T01:05:50.712Z,1011.17
2022-08-14T01:06:35.585Z,1011.20
2022-08-14T01:07:38.539Z,1011.20
2022-08-14T01:08:51.539Z,1011.13
2022-08-14T01:09:35.548Z,1011.16
2022-08-14T01:10:38.478Z,1011.21
2022-08-14T01:11:36.112Z,1011.23
2022-08-14T01:12:41.701Z,1011.22
2022-08-14T01:13:42.702Z,1011.21
2022-08-14T01:14:35.714Z,1011.21
2022-08-14T01:15:57.839Z,1011.20
2022-08-14T01:16:35.477Z,1011.23
2022-08-14T01:17:34.509Z,1011.25
2022-08-14T01:18:34.453Z,1011.24
2022-08-14T01:19:34.454Z,1011.28
2022-08-14T01:20:34.434Z,1011.28
2022-08-14T01:21:38.806Z,1011.27
2022-08-14T01:22:35.409Z,1011.19
2022-08-14T01:23:41.758Z,1011.26
2022-08-14T01:24:35.391Z,1011.27
2022-08-14T01:25:34.381Z,1011.24
2022-08-14T01:26:38.840Z,1011.29
2022-08-14T01:27:36.606Z,1011.27
2022-08-14T01:28:55.950Z,1011.20
2022-08-14T01:30:03.235Z,1011.17
2022-08-14T01:30:39.874Z,1011.17
2022-08-14T01:31:37.020Z,1011.16
2022-08-14T01:32:37.306Z,1011.19
2022-08-14T01:35:16.074Z,1011.13
2022-08-14T01:35:17.635Z,1011.14
2022-08-14T01:36:05.127Z,1011.14
2022-08-14T01:36:35.424Z,1011.16
2022-08-14T01:37:34.252Z,1011.21
2022-08-14T01:38:34.249Z,1011.27
2022-08-14T01:39:34.284Z,1011.22
2022-08-14T01:40:40.981Z,1011.21
2022-08-14T01:41:35.209Z,1011.17
2022-08-14T01:42:36.044Z,1011.16
2022-08-14T01:43:35.904Z,1011.19
2022-08-14T01:44:34.540Z,1011.23
2022-08-14T01:45:40.510Z,1011.18
2022-08-14T01:46:36.791Z,1011.17
2022-08-14T01:47:37.208Z,1011.18
2022-08-14T01:48:37.597Z,1011.21
2022-08-14T01:49:35.375Z,1011.27
2022-08-14T01:50:34.114Z,1011.27
2022-08-14T01:51:34.103Z,1011.22
2022-08-14T01:52:59.241Z,1011.24
2022-08-14T01:53:35.777Z,1011.21
2022-08-14T01:54:34.067Z,1011.21
2022-08-14T01:55:34.058Z,1011.22
2022-08-14T01:56:37.456Z,1011.25
2022-08-14T01:58:00.523Z,1011.22
2022-08-14T01:58:35.025Z,1011.28
2022-08-14T01:59:38.325Z,1011.18
2022-08-14T02:00:36.225Z,1011.21
2022-08-14T02:01:34.057Z,1011.21
2022-08-14T02:02:37.353Z,1011.20
2022-08-14T02:03:34.972Z,1011.20
2022-08-14T02:04:54.840Z,1011.16
2022-08-14T02:05:35.550Z,1011.24
2022-08-14T02:06:33.940Z,1011.20
2022-08-14T02:07:44.630Z,1011.18
2022-08-14T02:08:35.652Z,1011.19
2022-08-14T02:09:33.913Z,1011.16
2022-08-14T02:10:33.904Z,1011.16
2022-08-14T02:11:34.891Z,1011.10
2022-08-14T02:12:33.905Z,1011.11
2022-08-14T02:13:33.868Z,1011.11
2022-08-14T02:14:33.852Z,1011.12
2022-08-14T02:15:33.843Z,1011.16
2022-08-14T02:16:33.839Z,1011.09
2022-08-14T02:17:33.853Z,1011.11
2022-08-14T02:18:33.810Z,1011.04
2022-08-14T02:19:33.800Z,1011.11
2022-08-14T02:20:33.788Z,1011.08
2022-08-14T02:21:39.532Z,1011.05
2022-08-14T02:22:34.797Z,1011.09
2022-08-14T02:23:36.261Z,1011.09
2022-08-14T02:24:39.154Z,1011.04
2022-08-14T02:25:34.738Z,1011.01
2022-08-14T02:26:33.767Z,1011.02
2022-08-14T02:28:23.587Z,1011.04
2022-08-14T02:28:57.503Z,1011.02
2022-08-14T02:29:59.269Z,1011.01
2022-08-14T02:30:34.700Z,1010.99
2022-08-14T02:31:42.024Z,1011.03
2022-08-14T02:32:37.347Z,1011.05
2022-08-14T02:33:33.885Z,1010.99
2022-08-14T02:34:36.302Z,1011.01
2022-08-14T02:35:33.643Z,1011.01
2022-08-14T02:37:06.213Z,1011.01
2022-08-14T02:37:37.427Z,1010.93
2022-08-14T02:38:35.088Z,1010.95
2022-08-14T02:39:33.653Z,1010.91
2022-08-14T02:40:34.058Z,1010.91
2022-08-14T02:41:36.778Z,1010.91
2022-08-14T02:42:36.914Z,1010.89
2022-08-14T02:43:36.595Z,1010.86
2022-08-14T02:44:39.659Z,1010.83
2022-08-14T02:45:38.659Z,1010.88
2022-08-14T02:46:34.516Z,1010.84
2022-08-14T02:47:34.509Z,1010.88
2022-08-14T02:49:01.629Z,1010.80
2022-08-14T02:49:34.483Z,1010.87
2022-08-14T02:50:33.858Z,1010.82
2022-08-14T02:51:33.464Z,1010.85
2022-08-14T02:52:57.067Z,1010.80
2022-08-14T02:53:34.443Z,1010.85
2022-08-14T02:54:33.432Z,1010.82
2022-08-14T02:55:33.449Z,1010.78
2022-08-14T02:57:13.830Z,1010.68
2022-08-14T02:57:40.341Z,1010.75
2022-08-14T02:58:34.383Z,1010.70
2022-08-14T02:59:33.864Z,1010.72
2022-08-14T03:00:33.573Z,1010.72
2022-08-14T03:01:50.554Z,1010.70
2022-08-14T03:02:56.058Z,1010.69
2022-08-14T03:03:38.638Z,1010.72
2022-08-14T03:04:33.329Z,1010.74
2022-08-14T03:05:36.944Z,1010.73
2022-08-14T03:06:34.918Z,1010.79
2022-08-14T03:07:34.289Z,1010.73
2022-08-14T03:08:33.287Z,1010.74
2022-08-14T03:10:24.693Z,1010.72
2022-08-14T03:10:34.305Z,1010.64
2022-08-14T03:11:35.124Z,1010.73
2022-08-14T03:12:33.243Z,1010.69
2022-08-14T03:13:33.228Z,1010.63
2022-08-14T03:14:33.218Z,1010.68
2022-08-14T03:15:34.386Z,1010.65
2022-08-14T03:16:34.276Z,1010.64
2022-08-14T03:17:41.133Z,1010.60
2022-08-14T03:18:34.178Z,1010.72
2022-08-14T03:19:33.165Z,1010.74
2022-08-14T03:20:33.155Z,1010.68
2022-08-14T03:21:34.389Z,1010.66
2022-08-14T03:22:33.137Z,1010.66
2022-08-14T03:23:33.121Z,1010.67
2022-08-14T03:24:33.114Z,1010.69
2022-08-14T03:25:33.125Z,1010.67
2022-08-14T03:26:33.099Z,1010.71
2022-08-14T03:27:35.168Z,1010.72
2022-08-14T03:28:34.074Z,1010.66
2022-08-14T03:29:33.092Z,1010.67
2022-08-14T03:30:39.323Z,1010.67
2022-08-14T03:31:34.032Z,1010.65
2022-08-14T03:32:33.053Z,1010.72
2022-08-14T03:33:37.919Z,1010.69
2022-08-14T03:34:48.055Z,1010.72
2022-08-14T03:35:37.417Z,1010.76
2022-08-14T03:37:37.889Z,1010.65
2022-08-14T03:38:01.617Z,1010.65
2022-08-14T03:39:12.464Z,1010.66
2022-08-14T03:39:34.003Z,1010.69
2022-08-14T03:40:32.942Z,1010.61
2022-08-14T03:41:33.253Z,1010.63
2022-08-14T03:42:36.703Z,1010.62
2022-08-14T03:43:33.091Z,1010.57
2022-08-14T03:45:18.685Z,1010.60
2022-08-14T03:45:34.967Z,1010.62
2022-08-14T03:46:53.108Z,1010.60
2022-08-14T03:47:46.410Z,1010.61
2022-08-14T03:48:40.249Z,1010.61
2022-08-14T03:49:34.015Z,1010.61
2022-08-14T03:50:32.831Z,1010.60
2022-08-14T03:51:32.824Z,1010.56
2022-08-14T03:52:39.313Z,1010.61
2022-08-14T03:53:34.219Z,1010.64
2022-08-14T03:54:32.816Z,1010.61
2022-08-14T03:55:32.787Z,1010.54
2022-08-14T03:56:32.774Z,1010.58
2022-08-14T03:57:37.051Z,1010.61
2022-08-14T03:58:34.967Z,1010.62
2022-08-14T03:59:32.877Z,1010.62
2022-08-14T04:00:43.371Z,1010.61
2022-08-14T04:01:39.165Z,1010.61
2022-08-14T04:02:37.336Z,1010.56
2022-08-14T04:03:32.694Z,1010.58
2022-08-14T04:04:33.577Z,1010.56
2022-08-14T04:05:38.064Z,1010.49
2022-08-14T04:06:33.656Z,1010.52
2022-08-14T04:07:36.082Z,1010.53
2022-08-14T04:08:32.673Z,1010.48
2022-08-14T04:09:32.626Z,1010.46
2022-08-14T04:10:33.116Z,1010.52
2022-08-14T04:11:32.607Z,1010.46
2022-08-14T04:12:32.595Z,1010.54
2022-08-14T04:13:34.104Z,1010.52
2022-08-14T04:14:32.574Z,1010.46
2022-08-14T04:15:55.705Z,1010.46
2022-08-14T04:16:33.553Z,1010.44
2022-08-14T04:17:32.544Z,1010.45
2022-08-14T04:18:33.898Z,1010.46
2022-08-14T04:19:32.955Z,1010.50
2022-08-14T04:20:32.513Z,1010.45
2022-08-14T04:21:39.712Z,1010.44
2022-08-14T04:22:33.489Z,1010.46
2022-08-14T04:23:33.498Z,1010.42
2022-08-14T04:24:38.249Z,1010.47
2022-08-14T04:25:33.455Z,1010.45
2022-08-14T04:26:42.059Z,1010.54
2022-08-14T04:27:33.428Z,1010.52
2022-08-14T04:29:06.786Z,1010.51
2022-08-14T04:29:33.412Z,1010.53
2022-08-14T04:30:32.770Z,1010.49
2022-08-14T04:32:58.174Z,1010.47
2022-08-14T04:33:00.115Z,1010.50
2022-08-14T04:33:33.397Z,1010.49
2022-08-14T04:34:32.359Z,1010.50
2022-08-14T04:35:55.320Z,1010.47
2022-08-14T04:36:33.333Z,1010.50
2022-08-14T04:37:32.321Z,1010.52
2022-08-14T04:38:36.506Z,1010.54
2022-08-14T04:39:33.401Z,1010.52
2022-08-14T04:40:32.302Z,1010.54
2022-08-14T04:41:32.277Z,1010.50
2022-08-14T04:42:32.334Z,1010.50
2022-08-14T04:43:38.576Z,1010.46
2022-08-14T04:44:36.718Z,1010.48
2022-08-14T04:45:32.242Z,1010.46
2022-08-14T04:46:55.361Z,1010.52
2022-08-14T04:47:33.213Z,1010.45
2022-08-14T04:48:43.137Z,1010.48
2022-08-14T04:49:33.223Z,1010.41
2022-08-14T04:50:37.857Z,1010.43
2022-08-14T04:51:46.348Z,1010.35
2022-08-14T04:52:33.161Z,1010.39
2022-08-14T04:53:35.116Z,1010.40
2022-08-14T04:54:32.165Z,1010.39
2022-08-14T04:55:32.127Z,1010.40
2022-08-14T04:56:34.608Z,1010.37
2022-08-14T04:57:32.106Z,1010.32
2022-08-14T04:58:33.811Z,1010.36
2022-08-14T04:59:32.109Z,1010.40
2022-08-14T05:00:32.080Z,1010.38
2022-08-14T05:01:33.983Z,1010.37
2022-08-14T05:02:34.670Z,1010.39
2022-08-14T05:03:32.164Z,1010.34
2022-08-14T05:04:32.037Z,1010.33
2022-08-14T05:05:32.206Z,1010.34
2022-08-14T05:06:37.705Z,1010.37
2022-08-14T05:07:46.680Z,1010.33
2022-08-14T05:08:50.443Z,1010.30
2022-08-14T05:09:32.977Z,1010.33
2022-08-14T05:10:32.550Z,1010.28
2022-08-14T05:11:31.953Z,1010.31
2022-08-14T05:13:10.683Z,1010.34
2022-08-14T05:13:52.927Z,1010.25
2022-08-14T05:14:46.135Z,1010.36
2022-08-14T05:15:32.923Z,1010.25
2022-08-14T05:16:31.906Z,1010.23
2022-08-14T05:17:44.325Z,1010.28
2022-08-14T05:19:16.926Z,1010.27
2022-08-14T05:19:33.043Z,1010.24
2022-08-14T05:21:57.724Z,1010.22
2022-08-14T05:22:00.437Z,1010.17
2022-08-14T05:22:32.866Z,1010.16
2022-08-14T05:23:31.838Z,1010.21
2022-08-14T05:24:31.817Z,1010.15
2022-08-14T05:25:34.193Z,1010.22
2022-08-14T05:26:31.798Z,1010.21
2022-08-14T05:27:31.810Z,1010.26
2022-08-14T05:28:31.777Z,1010.17
2022-08-14T05:29:31.769Z,1010.23
2022-08-14T05:30:31.754Z,1010.14
2022-08-14T05:31:40.300Z,1010.15
2022-08-14T05:32:32.730Z,1010.17
2022-08-14T05:33:31.719Z,1010.13
2022-08-14T05:34:32.246Z,1010.19
2022-08-14T05:35:31.698Z,1010.14
2022-08-14T05:36:31.688Z,1010.17
2022-08-14T05:37:31.701Z,1010.14
2022-08-14T05:38:32.027Z,1010.09
2022-08-14T05:39:31.976Z,1010.14
2022-08-14T05:40:31.646Z,1010.12
2022-08-14T05:41:52.675Z,1010.08
2022-08-14T05:42:34.450Z,1010.04
2022-08-14T05:43:41.643Z,1010.03
2022-08-14T05:44:32.600Z,1010.01
2022-08-14T05:45:31.587Z,1009.95
2022-08-14T05:46:31.607Z,1010.00
2022-08-14T05:47:34.046Z,1009.99
2022-08-14T05:48:33.812Z,1010.01
2022-08-14T05:49:32.987Z,1010.00
2022-08-14T05:50:31.538Z,1009.97
2022-08-14T05:51:31.558Z,1009.94
2022-08-14T05:52:39.114Z,1009.98
2022-08-14T05:53:32.503Z,1009.93
2022-08-14T05:54:35.554Z,1009.95
2022-08-14T05:55:31.519Z,1009.97
2022-08-14T05:56:31.472Z,1010.00
2022-08-14T05:57:31.459Z,1009.99
2022-08-14T05:58:33.781Z,1010.01
2022-08-14T05:59:39.217Z,1010.00
2022-08-14T06:00:38.596Z,1010.03
2022-08-14T06:01:32.467Z,1010.00
2022-08-14T06:02:31.412Z,1010.00
2022-08-14T06:03:31.395Z,1009.98
2022-08-14T06:04:31.391Z,1010.03
2022-08-14T06:05:31.403Z,1010.02
2022-08-14T06:06:36.422Z,1010.06
2022-08-14T06:07:32.359Z,1010.00
2022-08-14T06:08:36.314Z,1009.98
2022-08-14T06:09:35.457Z,1009.97
2022-08-14T06:10:32.350Z,1009.99
2022-08-14T06:11:31.434Z,1009.96
2022-08-14T06:12:56.569Z,1009.99
2022-08-14T06:13:44.731Z,1010.00
2022-08-14T06:14:32.278Z,1010.03
2022-08-14T06:15:31.298Z,1010.00
2022-08-14T06:16:31.260Z,1010.05
2022-08-14T06:17:38.837Z,1010.02
2022-08-14T06:18:32.398Z,1010.00
2022-08-14T06:19:31.220Z,1009.90
2022-08-14T06:20:31.248Z,1009.94
2022-08-14T06:21:31.206Z,1009.89
2022-08-14T06:22:31.193Z,1009.94
2022-08-14T06:23:31.182Z,1009.96
2022-08-14T06:24:34.758Z,1009.97
2022-08-14T06:25:31.188Z,1009.96
2022-08-14T06:26:31.154Z,1009.92
2022-08-14T06:27:33.905Z,1009.91
2022-08-14T06:28:31.132Z,1009.84
2022-08-14T06:29:32.496Z,1009.86
2022-08-14T06:30:45.768Z,1009.85
2022-08-14T06:31:32.096Z,1009.76
2022-08-14T06:32:37.741Z,1009.79
2022-08-14T06:35:03.456Z,1009.75
2022-08-14T06:35:11.156Z,1009.70
2022-08-14T06:35:32.056Z,1009.72
2022-08-14T06:36:31.047Z,1009.69
2022-08-14T06:37:31.037Z,1009.67
2022-08-14T06:38:31.047Z,1009.71
2022-08-14T06:39:36.341Z,1009.78
2022-08-14T06:40:34.193Z,1009.70
2022-08-14T06:41:52.703Z,1009.76
2022-08-14T06:42:33.010Z,1009.74
2022-08-14T06:43:31.937Z,1009.78
2022-08-14T06:44:33.044Z,1009.75
2022-08-14T06:45:30.948Z,1009.76
2022-08-14T06:46:32.389Z,1009.74
2022-08-14T06:47:30.929Z,1009.76
2022-08-14T06:48:31.018Z,1009.74
2022-08-14T06:49:30.908Z,1009.76
2022-08-14T06:50:33.701Z,1009.80
2022-08-14T06:51:38.902Z,1009.76
2022-08-14T06:52:31.872Z,1009.77
2022-08-14T06:53:30.903Z,1009.78
2022-08-14T06:54:31.584Z,1009.87
2022-08-14T06:55:30.838Z,1009.76
2022-08-14T06:56:30.834Z,1009.81
2022-08-14T06:57:30.824Z,1009.81
2022-08-14T06:58:31.832Z,1009.78
2022-08-14T06:59:30.799Z,1009.80
2022-08-14T07:00:31.576Z,1009.81
2022-08-14T07:01:30.791Z,1009.83
2022-08-14T07:02:30.764Z,1009.78
2022-08-14T07:03:30.782Z,1009.87
2022-08-14T07:04:30.746Z,1009.79
2022-08-14T07:05:30.732Z,1009.82
2022-08-14T07:06:46.332Z,1009.80
2022-08-14T07:07:31.714Z,1009.78
2022-08-14T07:08:31.340Z,1009.82
2022-08-14T07:09:43.954Z,1009.80
2022-08-14T07:10:31.677Z,1009.74
2022-08-14T07:11:30.671Z,1009.75
2022-08-14T07:12:54.538Z,1009.74
2022-08-14T07:13:31.684Z,1009.71
2022-08-14T07:14:30.637Z,1009.66
2022-08-14T07:15:32.370Z,1009.71
2022-08-14T07:16:30.617Z,1009.75
2022-08-14T07:17:31.923Z,1009.68
2022-08-14T07:18:30.621Z,1009.66
2022-08-14T07:19:30.582Z,1009.67
2022-08-14T07:20:32.078Z,1009.61
2022-08-14T07:21:30.567Z,1009.58
2022-08-14T07:22:33.077Z,1009.59
2022-08-14T07:23:31.606Z,1009.59
2022-08-14T07:24:31.307Z,1009.61
2022-08-14T07:25:32.773Z,1009.56
2022-08-14T07:26:30.515Z,1009.56
2022-08-14T07:27:33.411Z,1009.57
2022-08-14T07:28:31.508Z,1009.56
2022-08-14T07:29:30.477Z,1009.56
2022-08-14T07:30:34.329Z,1009.47
2022-08-14T07:31:30.455Z,1009.51
2022-08-14T07:32:34.015Z,1009.52
2022-08-14T07:33:30.461Z,1009.49
2022-08-14T07:34:36.421Z,1009.55
2022-08-14T07:35:43.014Z,1009.56
2022-08-14T07:36:31.412Z,1009.48
2022-08-14T07:37:30.395Z,1009.52
2022-08-14T07:38:36.306Z,1009.48
2022-08-14T07:39:31.416Z,1009.55
2022-08-14T07:40:30.423Z,1009.50
2022-08-14T07:41:33.735Z,1009.49
2022-08-14T07:42:31.344Z,1009.50
2022-08-14T07:43:30.359Z,1009.48
2022-08-14T07:44:35.785Z,1009.47
2022-08-14T07:45:32.032Z,1009.53
2022-08-14T07:46:30.977Z,1009.48
2022-08-14T07:47:30.290Z,1009.47
2022-08-14T07:48:30.304Z,1009.40
2022-08-14T07:49:30.269Z,1009.46
2022-08-14T07:50:34.614Z,1009.38
2022-08-14T07:51:36.641Z,1009.45
2022-08-14T07:52:32.006Z,1009.40
2022-08-14T07:53:30.256Z,1009.45
2022-08-14T07:54:30.702Z,1009.44
2022-08-14T07:55:30.199Z,1009.39
2022-08-14T07:56:47.739Z,1009.45
2022-08-14T07:57:31.186Z,1009.41
2022-08-14T07:58:34.135Z,1009.40
2022-08-14T07:59:41.880Z,1009.35
2022-08-14T08:00:33.387Z,1009.40
2022-08-14T08:01:30.167Z,1009.40
2022-08-14T08:02:30.158Z,1009.35
2022-08-14T08:03:30.492Z,1009.35
2022-08-14T08:04:30.104Z,1009.34
2022-08-14T08:05:30.096Z,1009.36
2022-08-14T08:06:30.086Z,1009.36
2022-08-14T08:07:30.634Z,1009.31
2022-08-14T08:08:31.396Z,1009.32
2022-08-14T08:09:32.523Z,1009.34
2022-08-14T08:10:40.703Z,1009.30
2022-08-14T08:11:35.023Z,1009.32
2022-08-14T08:12:32.154Z,1009.25
2022-08-14T08:13:30.011Z,1009.24
2022-08-14T08:14:30.009Z,1009.27
2022-08-14T08:15:29.988Z,1009.27
2022-08-14T08:16:30.149Z,1009.30
2022-08-14T08:17:34.805Z,1009.28
2022-08-14T08:18:31.251Z,1009.34
2022-08-14T08:19:29.951Z,1009.28
2022-08-14T08:20:30.929Z,1009.32
2022-08-14T08:21:33.415Z,1009.32
2022-08-14T08:22:32.530Z,1009.27
2022-08-14T08:23:40.107Z,1009.23
2022-08-14T08:24:30.897Z,1009.28
2022-08-14T08:25:29.881Z,1009.24
2022-08-14T08:26:29.874Z,1009.25
2022-08-14T08:27:29.890Z,1009.25
2022-08-14T08:28:29.854Z,1009.21
2022-08-14T08:29:29.838Z,1009.18
2022-08-14T08:30:29.831Z,1009.19
2022-08-14T08:31:33.085Z,1009.24
2022-08-14T08:32:30.841Z,1009.20
2022-08-14T08:33:32.333Z,1009.21
2022-08-14T08:34:30.786Z,1009.16
2022-08-14T08:35:33.028Z,1009.17
2022-08-14T08:36:30.799Z,1009.20
2022-08-14T08:37:30.705Z,1009.16
2022-08-14T08:39:17.386Z,1009.14
2022-08-14T08:40:01.454Z,1009.17
2022-08-14T08:40:31.473Z,1009.12
2022-08-14T08:41:31.775Z,1009.13
2022-08-14T08:42:31.734Z,1009.15
2022-08-14T08:43:30.693Z,1009.11
2022-08-14T08:44:31.718Z,1009.11
2022-08-14T08:45:29.673Z,1009.11
2022-08-14T08:46:29.680Z,1009.18
2022-08-14T08:47:29.693Z,1009.15
2022-08-14T08:48:31.535Z,1009.09
2022-08-14T08:49:29.631Z,1009.04
2022-08-14T08:51:33.401Z,1009.04
2022-08-14T08:52:31.955Z,1009.04
2022-08-14T08:53:29.593Z,1008.99
2022-08-14T08:54:30.996Z,1008.91
2022-08-14T08:55:29.572Z,1008.93
2022-08-14T08:56:30.759Z,1008.95
2022-08-14T08:57:30.547Z,1008.88
2022-08-14T08:58:29.530Z,1008.97
2022-08-14T08:59:31.124Z,1008.94
2022-08-14T09:00:29.563Z,1009.00
2022-08-14T09:01:29.541Z,1008.95
2022-08-14T09:02:29.497Z,1008.92
2022-08-14T09:03:29.488Z,1008.90
2022-08-14T09:04:29.471Z,1008.85
2022-08-14T09:05:29.544Z,1008.93
2022-08-14T09:07:00.139Z,1008.95
2022-08-14T09:07:31.177Z,1008.93
2022-08-14T09:08:31.372Z,1008.95
2022-08-14T09:09:33.141Z,1008.88
2022-08-14T09:10:29.439Z,1008.91
2022-08-14T09:11:29.400Z,1008.92
2022-08-14T09:12:31.809Z,1008.90
2022-08-14T09:13:30.563Z,1008.90
2022-08-14T09:14:29.366Z,1008.82
2022-08-14T09:15:42.570Z,1008.86
2022-08-14T09:16:30.345Z,1008.80
2022-08-14T09:17:29.339Z,1008.89
2022-08-14T09:18:29.330Z,1008.85
2022-08-14T09:19:29.319Z,1008.73
2022-08-14T09:20:30.637Z,1008.82
2022-08-14T09:21:30.925Z,1008.76
2022-08-14T09:22:35.281Z,1008.80
2022-08-14T09:23:49.488Z,1008.80
2022-08-14T09:24:35.387Z,1008.71
2022-08-14T09:25:59.640Z,1008.69
2022-08-14T09:26:30.245Z,1008.72
2022-08-14T09:27:29.233Z,1008.69
2022-08-14T09:28:29.223Z,1008.65
2022-08-14T09:29:29.217Z,1008.62
2022-08-14T09:30:33.197Z,1008.67
2022-08-14T09:31:42.671Z,1008.68
2022-08-14T09:32:59.300Z,1008.69
2022-08-14T09:33:30.171Z,1008.67
2022-08-14T09:34:29.160Z,1008.65
2022-08-14T09:35:29.187Z,1008.63
2022-08-14T09:36:29.162Z,1008.57
2022-08-14T09:37:29.133Z,1008.56
2022-08-14T09:38:29.123Z,1008.55
2022-08-14T09:39:29.169Z,1008.55
2022-08-14T09:40:29.364Z,1008.54
2022-08-14T09:42:20.691Z,1008.58
2022-08-14T09:42:33.212Z,1008.56
2022-08-14T09:43:29.064Z,1008.54
2022-08-14T09:44:29.091Z,1008.53
2022-08-14T09:45:30.381Z,1008.60
2022-08-14T09:46:30.035Z,1008.54
2022-08-14T09:47:29.028Z,1008.54
2022-08-14T09:48:31.004Z,1008.46
2022-08-14T09:49:29.008Z,1008.49
2022-08-14T09:50:28.993Z,1008.54
2022-08-14T09:51:33.037Z,1008.49
2022-08-14T09:52:33.798Z,1008.51
2022-08-14T09:53:34.217Z,1008.41
2022-08-14T09:54:29.950Z,1008.45
2022-08-14T09:55:30.457Z,1008.43
2022-08-14T09:56:30.544Z,1008.47
2022-08-14T09:57:29.148Z,1008.42
2022-08-14T09:58:28.939Z,1008.43
2022-08-14T09:59:33.464Z,1008.43
2022-08-14T10:00:30.757Z,1008.46
2022-08-14T10:01:28.880Z,1008.41
2022-08-14T10:02:28.907Z,1008.42
2022-08-14T10:03:28.949Z,1008.38
2022-08-14T10:04:36.646Z,1008.44
2022-08-14T10:05:29.841Z,1008.39
2022-08-14T10:06:28.862Z,1008.34
2022-08-14T10:07:28.821Z,1008.33
2022-08-14T10:08:28.809Z,1008.35
2022-08-14T10:09:28.805Z,1008.30
2022-08-14T10:10:29.789Z,1008.35
2022-08-14T10:11:34.936Z,1008.28
2022-08-14T10:12:29.765Z,1008.39
2022-08-14T10:13:28.757Z,1008.32
2022-08-14T10:14:35.742Z,1008.30
2022-08-14T10:15:29.889Z,1008.35
2022-08-14T10:16:33.621Z,1008.31
2022-08-14T10:17:33.139Z,1008.37
2022-08-14T10:18:29.705Z,1008.44
2022-08-14T10:19:28.706Z,1008.34
2022-08-14T10:20:39.354Z,1008.37
2022-08-14T10:21:29.837Z,1008.30
2022-08-14T10:23:12.019Z,1008.34
2022-08-14T10:23:33.949Z,1008.30
2022-08-14T10:24:36.350Z,1008.19
2022-08-14T10:25:29.631Z,1008.21
2022-08-14T10:26:28.715Z,1008.18
2022-08-14T10:27:28.852Z,1008.25
2022-08-14T10:29:03.677Z,1008.17
2022-08-14T10:29:29.626Z,1008.19
2022-08-14T10:30:28.578Z,1008.17
2022-08-14T10:31:28.570Z,1008.19
2022-08-14T10:32:39.971Z,1008.15
2022-08-14T10:33:29.547Z,1008.12
2022-08-14T10:34:29.096Z,1008.11
2022-08-14T10:35:31.057Z,1008.12
2022-08-14T10:36:37.011Z,1008.11
2022-08-14T10:37:29.511Z,1008.02
2022-08-14T10:38:28.498Z,1007.94
2022-08-14T10:39:28.535Z,1007.98
2022-08-14T10:40:44.068Z,1007.96
2022-08-14T10:41:31.746Z,1007.97
2022-08-14T10:42:28.460Z,1007.98
2022-08-14T10:43:31.914Z,1007.90
2022-08-14T10:44:29.701Z,1007.92
2022-08-14T10:45:28.457Z,1007.90
2022-08-14T10:47:41.066Z,1007.88
2022-08-14T10:47:41.383Z,1007.82
2022-08-14T10:48:36.883Z,1007.84
2022-08-14T10:49:29.409Z,1007.82
2022-08-14T10:50:28.381Z,1007.77
2022-08-14T10:51:30.263Z,1007.75
2022-08-14T10:52:29.356Z,1007.75
2022-08-14T10:53:28.350Z,1007.71
2022-08-14T10:54:35.982Z,1007.73
2022-08-14T10:55:29.347Z,1007.67
2022-08-14T10:56:34.200Z,1007.63
2022-08-14T10:57:29.343Z,1007.67
2022-08-14T10:58:28.297Z,1007.68
2022-08-14T10:59:30.623Z,1007.62
2022-08-14T11:00:29.927Z,1007.60
2022-08-14T11:01:29.424Z,1007.61
2022-08-14T11:02:44.908Z,1007.60
2022-08-14T11:03:56.265Z,1007.58
2022-08-14T11:04:30.727Z,1007.57
2022-08-14T11:05:28.528Z,1007.58
2022-08-14T11:06:28.246Z,1007.53
2022-08-14T11:07:28.206Z,1007.56
2022-08-14T11:08:28.193Z,1007.57
2022-08-14T11:09:32.031Z,1007.58
2022-08-14T11:10:28.171Z,1007.58
2022-08-14T11:11:35.765Z,1007.59
2022-08-14T11:12:35.104Z,1007.54
2022-08-14T11:13:30.584Z,1007.56
2022-08-14T11:14:28.140Z,1007.64
2022-08-14T11:15:28.134Z,1007.59
2022-08-14T11:16:28.661Z,1007.60
2022-08-14T11:17:28.108Z,1007.57
2022-08-14T11:18:32.344Z,1007.56
2022-08-14T11:19:29.087Z,1007.58
2022-08-14T11:20:28.076Z,1007.62
2022-08-14T11:21:30.291Z,1007.61
2022-08-14T11:22:56.674Z,1007.53
2022-08-14T11:23:38.369Z,1007.55
2022-08-14T11:24:55.159Z,1007.53
2022-08-14T11:25:41.373Z,1007.59
2022-08-14T11:26:30.001Z,1007.49
2022-08-14T11:27:33.509Z,1007.48
2022-08-14T11:28:46.862Z,1007.44
2022-08-14T11:29:28.991Z,1007.45
2022-08-14T11:30:50.849Z,1007.38
2022-08-14T11:31:38.704Z,1007.47
2022-08-14T11:32:28.962Z,1007.43
2022-08-14T11:33:27.950Z,1007.47
2022-08-14T11:34:32.219Z,1007.45
2022-08-14T11:35:43.932Z,1007.45
2022-08-14T11:37:02.351Z,1007.43
2022-08-14T11:37:35.269Z,1007.44
2022-08-14T11:38:28.896Z,1007.45
2022-08-14T11:39:35.091Z,1007.44
2022-08-14T11:40:29.349Z,1007.43
2022-08-14T11:41:27.908Z,1007.51
2022-08-14T11:42:57.283Z,1007.50
2022-08-14T11:43:29.487Z,1007.47
2022-08-14T11:44:46.648Z,1007.49
2022-08-14T11:45:29.865Z,1007.44
2022-08-14T11:46:30.716Z,1007.46
2022-08-14T11:47:35.094Z,1007.53
2022-08-14T11:49:01.990Z,1007.43
2022-08-14T11:49:34.085Z,1007.45
2022-08-14T11:50:37.271Z,1007.44
2022-08-14T11:51:30.586Z,1007.40
2022-08-14T11:52:27.866Z,1007.40
2022-08-14T11:53:27.753Z,1007.39
2022-08-14T11:54:34.445Z,1007.36
2022-08-14T11:55:28.739Z,1007.39
2022-08-14T11:56:29.639Z,1007.33
2022-08-14T11:57:27.748Z,1007.35
2022-08-14T11:58:27.705Z,1007.35
2022-08-14T11:59:32.847Z,1007.36
2022-08-14T12:00:31.530Z,1007.39
2022-08-14T12:01:27.675Z,1007.40
2022-08-14T12:02:38.917Z,1007.36
2022-08-14T12:03:46.008Z,1007.29
2022-08-14T12:04:33.303Z,1007.28
2022-08-14T12:05:28.631Z,1007.36
2022-08-14T12:06:28.888Z,1007.31